createdAt,value
2022-12-03T00:00:23.438Z,79.51
2022-12-03T00:05:22.701Z,79.23
2022-12-03T00:10:20.597Z,79.08
2022-12-03T00:15:18.791Z,79.09
2022-12-03T00:20:19.704Z,79.13
2022-12-03T00:25:19.336Z,78.75
2022-12-03T00:30:17.430Z,79.31
2022-12-03T00:35:15.455Z,80.55
2022-12-03T00:40:13.905Z,80.14
2022-12-03T00:45:13.872Z,79.19
2022-12-03T00:50:12.107Z,79.42
2022-12-03T00:55:10.455Z,79.87
2022-12-03T01:00:09.282Z,79.13
2022-12-03T01:05:09.222Z,79.75
2022-12-03T01:10:08.005Z,78.09
2022-12-03T01:15:06.515Z,79.04
2022-12-03T01:20:04.989Z,79.44
2022-12-03T01:25:04.822Z,79.93
2022-12-03T01:30:02.752Z,79.92
2022-12-03T01:35:00.590Z,78.72
2022-12-03T01:39:58.383Z,78.52
2022-12-03T01:44:58.792Z,78.83
2022-12-03T01:49:58.905Z,78.50
2022-12-03T01:55:00.329Z,79.19
2022-12-03T02:00:01.277Z,78.35
2022-12-03T02:05:06.335Z,78.78
2022-12-03T02:10:05.717Z,78.86
2022-12-03T02:15:06.292Z,78.60
2022-12-03T02:20:05.499Z,79.00
2022-12-03T02:25:10.444Z,79.13
2022-12-03T02:30:09.196Z,78.98
2022-12-03T02:35:07.794Z,79.07
2022-12-03T02:40:07.979Z,79.16
2022-12-03T02:45:09.588Z,78.83
2022-12-03T02:50:08.266Z,78.92
2022-12-03T02:55:07.379Z,78.03
2022-12-03T03:00:05.829Z,78.74
2022-12-03T03:05:07.274Z,78.82
2022-12-03T03:10:06.422Z,78.82
2022-12-03T03:15:04.748Z,79.28
2022-12-03T03:20:02.835Z,79.43
2022-12-03T03:25:02.465Z,79.81
2022-12-03T03:30:00.788Z,79.65
2022-12-03T03:34:58.690Z,79.38
2022-12-03T03:39:56.703Z,79.42
2022-12-03T03:44:56.134Z,79.68
2022-12-03T03:49:54.360Z,79.25
2022-12-03T03:54:52.970Z,79.18
2022-12-03T03:59:51.143Z,79.53
2022-12-03T04:04:50.562Z,79.54
2022-12-03T04:09:48.737Z,79.79
2022-12-03T04:14:46.718Z,80.22
2022-12-03T04:19:44.825Z,80.04
2022-12-03T04:24:44.316Z,79.62
2022-12-03T04:29:41.161Z,79.85
2022-12-03T04:34:56.793Z,80.38
2022-12-03T04:39:56.500Z,80.34
2022-12-03T04:44:54.567Z,80.52
2022-12-03T04:49:53.153Z,80.12
2022-12-03T04:54:51.382Z,80.26
2022-12-03T04:59:51.035Z,80.20
2022-12-03T05:04:48.994Z,80.01
2022-12-03T05:09:46.871Z,80.34
2022-12-03T05:14:44.871Z,80.68
2022-12-03T05:20:01.904Z,82.04
2022-12-03T05:25:02.660Z,82.64
2022-12-03T05:30:00.529Z,82.75
2022-12-03T05:34:59.806Z,82.21
2022-12-03T05:39:57.819Z,81.82
2022-12-03T05:44:56.025Z,82.01
2022-12-03T05:49:54.284Z,81.74
2022-12-03T05:54:54.022Z,81.42
2022-12-03T05:59:53.185Z,81.23
2022-12-03T06:04:51.240Z,81.50
2022-12-03T06:09:49.407Z,81.51
2022-12-03T06:14:48.683Z,81.18
2022-12-03T06:19:46.559Z,81.25
2022-12-03T06:24:44.558Z,80.92
2022-12-03T06:29:42.820Z,80.64
2022-12-03T06:34:42.285Z,80.64
2022-12-03T06:39:40.323Z,80.41
2022-12-03T06:44:38.283Z,82.03
2022-12-03T06:49:36.388Z,83.21
2022-12-03T06:54:35.852Z,82.23
2022-12-03T06:59:36.081Z,82.64
2022-12-03T07:04:34.167Z,83.05
2022-12-03T07:09:31.997Z,83.12
2022-12-03T07:14:31.256Z,83.13
2022-12-03T07:19:32.462Z,82.71
2022-12-03T07:24:30.815Z,83.31
2022-12-03T07:29:28.770Z,82.95
2022-12-03T07:34:28.160Z,81.29
2022-12-03T07:39:33.848Z,81.30
2022-12-03T07:44:32.827Z,80.14
2022-12-03T07:49:32.266Z,80.12
2022-12-03T07:54:31.378Z,78.80
2022-12-03T07:59:29.664Z,79.29
2022-12-03T08:04:27.849Z,78.52
2022-12-03T08:09:27.206Z,77.95
2022-12-03T08:14:25.932Z,76.57
2022-12-03T08:19:24.103Z,76.79
2022-12-03T08:24:22.611Z,76.07
2022-12-03T08:29:21.927Z,76.20
2022-12-03T08:34:21.399Z,77.54
2022-12-03T08:39:27.351Z,77.05
2022-12-03T08:44:27.601Z,76.92
2022-12-03T08:49:25.610Z,78.05
2022-12-03T08:54:24.048Z,77.51
2022-12-03T08:59:25.911Z,78.62
2022-12-03T09:04:27.675Z,80.63
2022-12-03T09:09:26.017Z,78.69
2022-12-03T09:14:24.189Z,78.17
2022-12-03T09:19:22.610Z,77.71
2022-12-03T09:24:22.356Z,75.86
2022-12-03T09:29:20.210Z,75.90
2022-12-03T09:34:18.220Z,75.00
2022-12-03T09:39:16.179Z,77.58
2022-12-03T09:44:18.026Z,77.42
2022-12-03T09:49:18.125Z,77.08
2022-12-03T09:54:24.356Z,77.67
2022-12-03T09:59:24.302Z,76.42
2022-12-03T10:04:22.609Z,77.37
2022-12-03T10:09:25.122Z,76.40
2022-12-03T10:14:24.876Z,76.38
2022-12-03T10:19:24.290Z,75.89
2022-12-03T10:24:23.836Z,75.00
2022-12-03T10:29:25.728Z,75.75
2022-12-03T10:34:31.952Z,76.51
2022-12-03T10:39:30.191Z,76.67
2022-12-03T10:44:30.829Z,77.58
2022-12-03T10:49:30.107Z,78.80
2022-12-03T10:54:32.894Z,79.10
2022-12-03T10:59:33.889Z,77.28
2022-12-03T11:04:36.938Z,76.72
2022-12-03T11:09:35.890Z,75.73
2022-12-03T11:14:54.028Z,74.14
2022-12-03T11:20:29.698Z,76.72
2022-12-03T11:25:50.746Z,76.59
2022-12-03T11:30:59.183Z,76.81
2022-12-03T11:36:15.409Z,75.99
2022-12-03T11:41:15.905Z,77.11
2022-12-03T11:46:14.133Z,77.55
2022-12-03T11:51:14.883Z,77.89
2022-12-03T11:56:18.839Z,76.71
2022-12-03T12:01:19.564Z,75.65
2022-12-03T12:06:42.500Z,76.85
2022-12-03T12:11:43.870Z,76.76
2022-12-03T12:16:50.900Z,75.85
2022-12-03T12:21:50.403Z,76.08
2022-12-03T12:26:52.717Z,77.04
2022-12-03T12:31:53.944Z,75.94
2022-12-03T12:36:52.703Z,77.24
2022-12-03T12:41:51.762Z,76.11
2022-12-03T12:46:53.551Z,76.83
2022-12-03T12:51:51.814Z,77.40
2022-12-03T12:56:51.185Z,77.54
2022-12-03T13:01:50.308Z,79.31
2022-12-03T13:06:50.856Z,78.50
2022-12-03T13:11:52.961Z,78.55
2022-12-03T13:16:51.926Z,78.97
2022-12-03T13:21:52.145Z,79.46
2022-12-03T13:26:50.182Z,79.73
2022-12-03T13:31:51.254Z,80.61
2022-12-03T13:36:57.134Z,81.35
2022-12-03T13:42:16.143Z,81.35
2022-12-03T13:47:16.252Z,81.71
2022-12-03T13:52:20.077Z,82.35
2022-12-03T13:57:22.223Z,81.96
2022-12-03T14:02:21.485Z,82.54
2022-12-03T14:07:19.496Z,81.21
2022-12-03T14:12:33.969Z,81.29
2022-12-03T14:17:33.359Z,82.08
2022-12-03T14:22:31.648Z,83.17
2022-12-03T14:27:29.545Z,82.13
2022-12-03T14:32:27.408Z,82.59
2022-12-03T14:37:26.570Z,82.92
2022-12-03T14:42:24.444Z,83.11
2022-12-03T14:47:23.620Z,83.75
2022-12-03T14:52:21.639Z,83.36
2022-12-03T14:57:21.373Z,82.89
2022-12-03T15:02:19.309Z,83.13
2022-12-03T15:07:17.980Z,84.11
2022-12-03T15:12:16.082Z,84.51
2022-12-03T15:17:15.416Z,84.64
2022-12-03T15:22:13.440Z,84.28
2022-12-03T15:27:11.292Z,83.86
2022-12-03T15:32:09.129Z,83.94
2022-12-03T15:37:09.313Z,83.89
2022-12-03T15:42:07.215Z,83.96
2022-12-03T15:47:05.198Z,84.08
2022-12-03T15:52:03.016Z,84.34
2022-12-03T15:57:02.227Z,85.61
2022-12-03T16:02:00.218Z,85.25
2022-12-03T16:06:58.101Z,84.25
2022-12-03T16:11:58.238Z,84.10
2022-12-03T16:16:59.012Z,85.87
2022-12-03T16:21:57.672Z,86.17
2022-12-03T16:26:55.757Z,85.50
2022-12-03T16:31:54.047Z,84.99
2022-12-03T16:36:53.464Z,86.91
2022-12-03T16:41:51.628Z,85.63
2022-12-03T16:46:50.042Z,85.72
2022-12-03T16:51:49.216Z,85.67
2022-12-03T16:56:49.632Z,85.61
2022-12-03T17:01:47.802Z,84.34
2022-12-03T17:06:45.695Z,84.50
2022-12-03T17:11:43.649Z,83.84
2022-12-03T17:16:43.113Z,84.01
2022-12-03T17:21:41.403Z,84.70
2022-12-03T17:26:39.456Z,84.12
2022-12-03T17:31:41.915Z,83.36
2022-12-03T17:36:42.038Z,84.19
2022-12-03T17:41:40.003Z,84.43
2022-12-03T17:46:38.124Z,84.54
2022-12-03T17:51:36.815Z,86.11
2022-12-03T17:56:36.491Z,85.70
2022-12-03T18:01:35.108Z,84.26
2022-12-03T18:06:33.230Z,85.27
2022-12-03T18:11:31.488Z,86.14
2022-12-03T18:16:31.245Z,84.58
2022-12-03T18:21:29.441Z,86.41
2022-12-03T18:26:28.395Z,86.92
2022-12-03T18:31:26.417Z,87.35
2022-12-03T18:36:29.940Z,87.38
2022-12-03T18:41:30.460Z,86.49
2022-12-03T18:46:52.591Z,86.13
2022-12-03T18:51:48.946Z,85.93
2022-12-03T18:56:47.651Z,87.17
2022-12-03T19:01:45.673Z,86.03
2022-12-03T19:06:43.626Z,86.55
2022-12-03T19:11:42.947Z,86.92
2022-12-03T19:16:41.727Z,86.21
2022-12-03T19:21:39.735Z,87.62
2022-12-03T19:26:37.914Z,86.92
2022-12-03T19:31:37.709Z,86.01
2022-12-03T19:36:36.467Z,86.30
2022-12-03T19:41:34.393Z,86.75
2022-12-03T19:46:33.019Z,85.70
2022-12-03T19:51:35.448Z,87.33
2022-12-03T19:56:34.293Z,87.75
2022-12-03T20:01:33.365Z,88.14
2022-12-03T20:06:33.936Z,88.37
2022-12-03T20:11:37.362Z,88.98
2022-12-03T20:16:37.296Z,90.16
2022-12-03T20:21:40.207Z,89.89
2022-12-03T20:26:41.620Z,88.24
2022-12-03T20:31:44.797Z,88.66
2022-12-03T20:36:44.650Z,88.67
2022-12-03T20:41:45.465Z,90.14
2022-12-03T20:46:53.309Z,88.21
2022-12-03T20:52:01.109Z,88.82
2022-12-03T20:57:02.546Z,88.35
2022-12-03T21:02:03.685Z,88.15
2022-12-03T21:07:04.095Z,89.43
2022-12-03T21:12:04.603Z,88.65
2022-12-03T21:17:10.279Z,88.46
2022-12-03T21:22:09.772Z,88.57
2022-12-03T21:27:08.457Z,88.23
2022-12-03T21:32:09.504Z,89.96
2022-12-03T21:37:12.285Z,89.76
2022-12-03T21:42:34.687Z,89.49
2022-12-03T21:47:32.120Z,90.72
2022-12-03T21:52:36.656Z,90.65
2022-12-03T21:57:40.141Z,88.90
2022-12-03T22:02:39.248Z,90.32
2022-12-03T22:07:39.448Z,90.70
2022-12-03T22:12:37.636Z,89.45
2022-12-03T22:17:36.343Z,90.83
2022-12-03T22:22:34.781Z,91.34
2022-12-03T22:27:34.161Z,90.53
2022-12-03T22:32:32.117Z,88.97
2022-12-03T22:37:30.435Z,87.94
2022-12-03T22:42:28.635Z,88.48
2022-12-03T22:47:28.354Z,89.65
2022-12-03T22:52:26.564Z,90.65
2022-12-03T22:57:24.476Z,90.82
2022-12-03T23:02:22.496Z,90.40
2022-12-03T23:07:22.034Z,89.98
2022-12-03T23:12:19.946Z,90.45
2022-12-03T23:17:18.697Z,91.18
2022-12-03T23:22:16.883Z,88.93
2022-12-03T23:27:16.268Z,89.56
2022-12-03T23:32:14.325Z,89.58
2022-12-03T23:37:12.854Z,90.84
2022-12-03T23:42:11.128Z,91.87
2022-12-03T23:47:12.554Z,91.85
2022-12-03T23:52:10.717Z,90.51
2022-12-03T23:57:09.552Z,90.72
